sensor_id;sensor_type;location;lat;lon;timestamp;pressure;altitude;pressure_sealevel;temperature;humidity
44213;BME280;29882;46.356;17.798;2022-09-01T00:00:01;99754.44;;;20.60;100.00
44213;BME280;29882;46.356;17.798;2022-09-01T00:02:32;99749.56;;;20.62;100.00
44213;BME280;29882;46.356;17.798;2022-09-01T00:05:00;99747.31;;;20.59;100.00
44213;BME280;29882;46.356;17.798;2022-09-01T00:07:28;99747.63;;;20.51;100.00
44213;BME280;29882;46.356;17.798;2022-09-01T00:09:57;99755.91;;;20.45;100.00
44213;BME280;29882;46.356;17.798;2022-09-01T00:12:25;99749.91;;;20.36;100.00
44213;BME280;29882;46.356;17.798;2022-09-01T00:14:53;99752.88;;;20.34;100.00
44213;BME280;29882;46.356;17.798;2022-09-01T00:17:20;99757.88;;;20.37;100.00
44213;BME280;29882;46.356;17.798;2022-09-01T00:19:48;99750.50;;;20.38;100.00
44213;BME280;29882;46.356;17.798;2022-09-01T00:22:15;99757.13;;;20.30;100.00
44213;BME280;29882;46.356;17.798;2022-09-01T00:24:42;99752.34;;;20.26;100.00
44213;BME280;29882;46.356;17.798;2022-09-01T00:27:09;99757.34;;;20.29;100.00
44213;BME280;29882;46.356;17.798;2022-09-01T00:29:38;99756.75;;;20.27;100.00
44213;BME280;29882;46.356;17.798;2022-09-01T00:32:10;99755.16;;;20.19;100.00
44213;BME280;29882;46.356;17.798;2022-09-01T00:34:37;99747.66;;;20.15;100.00
44213;BME280;29882;46.356;17.798;2022-09-01T00:37:05;99744.44;;;20.18;100.00
44213;BME280;29882;46.356;17.798;2022-09-01T00:39:32;99748.84;;;20.19;100.00
44213;BME280;29882;46.356;17.798;2022-09-01T00:41:59;99748.31;;;20.10;100.00
44213;BME280;29882;46.356;17.798;2022-09-01T00:44:26;99747.50;;;20.09;100.00
44213;BME280;29882;46.356;17.798;2022-09-01T00:46:57;99751.97;;;20.04;100.00
44213;BME280;29882;46.356;17.798;2022-09-01T00:49:29;99762.47;;;20.07;100.00
44213;BME280;29882;46.356;17.798;2022-09-01T00:52:07;99757.53;;;19.97;100.00
44213;BME280;29882;46.356;17.798;2022-09-01T00:54:44;99755.63;;;19.98;100.00
44213;BME280;29882;46.356;17.798;2022-09-01T00:57:12;99769.91;;;20.00;100.00
44213;BME280;29882;46.356;17.798;2022-09-01T00:59:56;99758.31;;;19.86;100.00
44213;BME280;29882;46.356;17.798;2022-09-01T01:02:24;99761.41;;;19.90;100.00
44213;BME280;29882;46.356;17.798;2022-09-01T01:04:51;99761.94;;;19.80;100.00
44213;BME280;29882;46.356;17.798;2022-09-01T01:07:21;99762.84;;;19.74;100.00
44213;BME280;29882;46.356;17.798;2022-09-01T01:09:49;99762.38;;;19.77;100.00
44213;BME280;29882;46.356;17.798;2022-09-01T01:12:17;99762.84;;;19.74;100.00
44213;BME280;29882;46.356;17.798;2022-09-01T01:14:46;99765.97;;;19.77;100.00
44213;BME280;29882;46.356;17.798;2022-09-01T01:17:21;99765.34;;;19.75;100.00
44213;BME280;29882;46.356;17.798;2022-09-01T01:19:52;99766.63;;;19.73;100.00
44213;BME280;29882;46.356;17.798;2022-09-01T01:25:45;99765.47;;;19.62;100.00
44213;BME280;29882;46.356;17.798;2022-09-01T01:28:25;99765.84;;;19.66;100.00
44213;BME280;29882;46.356;17.798;2022-09-01T01:31:08;99773.44;;;19.64;100.00
44213;BME280;29882;46.356;17.798;2022-09-01T01:33:42;99775.13;;;19.65;100.00
44213;BME280;29882;46.356;17.798;2022-09-01T01:36:23;99776.34;;;19.44;100.00
44213;BME280;29882;46.356;17.798;2022-09-01T01:41:31;99773.94;;;19.54;100.00
44213;BME280;29882;46.356;17.798;2022-09-01T01:44:01;99784.94;;;19.47;100.00
44213;BME280;29882;46.356;17.798;2022-09-01T01:46:33;99776.50;;;19.49;100.00
44213;BME280;29882;46.356;17.798;2022-09-01T01:49:00;99779.47;;;19.47;100.00
44213;BME280;29882;46.356;17.798;2022-09-01T01:51:29;99774.72;;;19.36;100.00
44213;BME280;29882;46.356;17.798;2022-09-01T01:53:59;99778.47;;;19.42;100.00
44213;BME280;29882;46.356;17.798;2022-09-01T01:56:33;99777.47;;;19.36;100.00
44213;BME280;29882;46.356;17.798;2022-09-01T01:59:04;99770.97;;;19.31;100.00
44213;BME280;29882;46.356;17.798;2022-09-01T02:01:33;99774.56;;;19.31;100.00
44213;BME280;29882;46.356;17.798;2022-09-01T02:04:01;99770.94;;;19.37;100.00
44213;BME280;29882;46.356;17.798;2022-09-01T02:06:32;99779.13;;;19.37;100.00
44213;BME280;29882;46.356;17.798;2022-09-01T02:09:01;99771.16;;;19.36;100.00
44213;BME280;29882;46.356;17.798;2022-09-01T02:11:30;99777.91;;;19.33;100.00
44213;BME280;29882;46.356;17.798;2022-09-01T02:14:00;99780.25;;;19.29;100.00
44213;BME280;29882;46.356;17.798;2022-09-01T02:16:28;99783.81;;;19.30;100.00
44213;BME280;29882;46.356;17.798;2022-09-01T02:18:56;99785.94;;;19.28;100.00
44213;BME280;29882;46.356;17.798;2022-09-01T02:21:24;99789.72;;;19.27;100.00
44213;BME280;29882;46.356;17.798;2022-09-01T02:24:01;99787.00;;;19.27;100.00
44213;BME280;29882;46.356;17.798;2022-09-01T02:26:33;99784.09;;;19.22;100.00
44213;BME280;29882;46.356;17.798;2022-09-01T02:29:02;99797.31;;;19.25;100.00
44213;BME280;29882;46.356;17.798;2022-09-01T02:31:36;99781.34;;;19.22;100.00
44213;BME280;29882;46.356;17.798;2022-09-01T02:34:07;99791.63;;;19.26;100.00
44213;BME280;29882;46.356;17.798;2022-09-01T02:36:37;99798.56;;;19.22;100.00
44213;BME280;29882;46.356;17.798;2022-09-01T02:39:09;99791.06;;;19.18;100.00
44213;BME280;29882;46.356;17.798;2022-09-01T02:41:37;99793.41;;;19.14;100.00
44213;BME280;29882;46.356;17.798;2022-09-01T02:44:06;99795.28;;;19.14;100.00
44213;BME280;29882;46.356;17.798;2022-09-01T02:46:40;99778.97;;;19.07;100.00
44213;BME280;29882;46.356;17.798;2022-09-01T02:49:14;99791.94;;;19.12;100.00
44213;BME280;29882;46.356;17.798;2022-09-01T02:51:49;99785.22;;;19.14;100.00
44213;BME280;29882;46.356;17.798;2022-09-01T02:54:21;99780.38;;;19.16;100.00
44213;BME280;29882;46.356;17.798;2022-09-01T02:56:51;99786.06;;;19.15;100.00
44213;BME280;29882;46.356;17.798;2022-09-01T02:59:25;99786.09;;;19.08;100.00
44213;BME280;29882;46.356;17.798;2022-09-01T03:01:57;99780.38;;;19.16;100.00
44213;BME280;29882;46.356;17.798;2022-09-01T03:04:24;99784.84;;;19.04;100.00
44213;BME280;29882;46.356;17.798;2022-09-01T03:06:53;99789.94;;;19.00;100.00
44213;BME280;29882;46.356;17.798;2022-09-01T03:09:21;99800.03;;;19.00;100.00
44213;BME280;29882;46.356;17.798;2022-09-01T03:11:51;99800.25;;;18.98;100.00
44213;BME280;29882;46.356;17.798;2022-09-01T03:14:20;99793.72;;;18.99;100.00
44213;BME280;29882;46.356;17.798;2022-09-01T03:16:48;99809.09;;;18.94;100.00
44213;BME280;29882;46.356;17.798;2022-09-01T03:19:15;99812.66;;;18.94;100.00
44213;BME280;29882;46.356;17.798;2022-09-01T03:21:45;99822.13;;;18.92;100.00
44213;BME280;29882;46.356;17.798;2022-09-01T03:24:17;99823.19;;;18.91;100.00
44213;BME280;29882;46.356;17.798;2022-09-01T03:26:46;99822.34;;;18.90;100.00
44213;BME280;29882;46.356;17.798;2022-09-01T03:29:17;99818.38;;;18.86;100.00
44213;BME280;29882;46.356;17.798;2022-09-01T03:31:45;99814.19;;;18.84;100.00
44213;BME280;29882;46.356;17.798;2022-09-01T03:34:13;99820.72;;;18.83;100.00
44213;BME280;29882;46.356;17.798;2022-09-01T03:36:47;99811.06;;;18.80;100.00
44213;BME280;29882;46.356;17.798;2022-09-01T03:39:26;99817.78;;;18.78;100.00
44213;BME280;29882;46.356;17.798;2022-09-01T03:41:53;99814.03;;;18.79;100.00
44213;BME280;29882;46.356;17.798;2022-09-01T03:44:22;99816.34;;;18.75;100.00
44213;BME280;29882;46.356;17.798;2022-09-01T03:46:49;99825.13;;;18.77;100.00
44213;BME280;29882;46.356;17.798;2022-09-01T03:49:18;99818.84;;;18.77;100.00
44213;BME280;29882;46.356;17.798;2022-09-01T03:51:51;99822.25;;;18.72;100.00
44213;BME280;29882;46.356;17.798;2022-09-01T03:54:21;99821.81;;;18.68;100.00
44213;BME280;29882;46.356;17.798;2022-09-01T03:56:54;99828.38;;;18.61;100.00
44213;BME280;29882;46.356;17.798;2022-09-01T03:59:21;99831.50;;;18.58;100.00
44213;BME280;29882;46.356;17.798;2022-09-01T04:01:50;99830.88;;;18.62;100.00
44213;BME280;29882;46.356;17.798;2022-09-01T04:04:17;99827.09;;;18.57;100.00
44213;BME280;29882;46.356;17.798;2022-09-01T04:06:45;99824.41;;;18.50;100.00
44213;BME280;29882;46.356;17.798;2022-09-01T04:09:13;99831.97;;;18.48;100.00
44213;BME280;29882;46.356;17.798;2022-09-01T04:11:42;99838.69;;;18.52;100.00
44213;BME280;29882;46.356;17.798;2022-09-01T04:14:14;99822.34;;;18.39;100.00
44213;BME280;29882;46.356;17.798;2022-09-01T04:16:42;99819.88;;;18.31;100.00
44213;BME280;29882;46.356;17.798;2022-09-01T04:19:33;99831.41;;;18.33;100.00
44213;BME280;29882;46.356;17.798;2022-09-01T04:22:03;99832.44;;;18.32;100.00
44213;BME280;29882;46.356;17.798;2022-09-01T04:24:40;99828.09;;;18.24;100.00
44213;BME280;29882;46.356;17.798;2022-09-01T04:27:14;99821.59;;;18.19;100.00
44213;BME280;29882;46.356;17.798;2022-09-01T04:29:44;99828.72;;;18.20;100.00
44213;BME280;29882;46.356;17.798;2022-09-01T04:32:12;99824.53;;;18.17;100.00
44213;BME280;29882;46.356;17.798;2022-09-01T04:34:47;99824.78;;;18.15;100.00
44213;BME280;29882;46.356;17.798;2022-09-01T04:37:17;99821.00;;;18.03;100.00
44213;BME280;29882;46.356;17.798;2022-09-01T04:39:50;99825.19;;;18.06;100.00
44213;BME280;29882;46.356;17.798;2022-09-01T04:42:24;99826.47;;;18.03;100.00
44213;BME280;29882;46.356;17.798;2022-09-01T04:44:54;99824.56;;;18.04;100.00
44213;BME280;29882;46.356;17.798;2022-09-01T04:47:24;99837.38;;;17.97;100.00
44213;BME280;29882;46.356;17.798;2022-09-01T04:50:06;99840.97;;;17.91;100.00
44213;BME280;29882;46.356;17.798;2022-09-01T04:53:01;99836.34;;;17.91;100.00
44213;BME280;29882;46.356;17.798;2022-09-01T04:55:32;99842.22;;;17.88;100.00
44213;BME280;29882;46.356;17.798;2022-09-01T04:57:59;99836.34;;;17.91;100.00
44213;BME280;29882;46.356;17.798;2022-09-01T05:00:36;99839.47;;;17.95;100.00
44213;BME280;29882;46.356;17.798;2022-09-01T05:03:03;99846.19;;;17.92;100.00
44213;BME280;29882;46.356;17.798;2022-09-01T05:05:49;99837.63;;;17.89;100.00
44213;BME280;29882;46.356;17.798;2022-09-01T05:08:19;99844.94;;;17.88;100.00
44213;BME280;29882;46.356;17.798;2022-09-01T05:10:52;99842.03;;;17.90;100.00
44213;BME280;29882;46.356;17.798;2022-09-01T05:13:39;99842.03;;;17.90;100.00
44213;BME280;29882;46.356;17.798;2022-09-01T05:16:08;99849.16;;;17.84;100.00
44213;BME280;29882;46.356;17.798;2022-09-01T05:18:42;99838.69;;;17.81;100.00
44213;BME280;29882;46.356;17.798;2022-09-01T05:21:17;99848.94;;;17.85;100.00
44213;BME280;29882;46.356;17.798;2022-09-01T05:23:46;99849.16;;;17.77;100.00
44213;BME280;29882;46.356;17.798;2022-09-01T05:26:19;99853.09;;;17.68;100.00
44213;BME280;29882;46.356;17.798;2022-09-01T05:28:51;99854.41;;;17.72;100.00
44213;BME280;29882;46.356;17.798;2022-09-01T05:31:23;99862.56;;;17.79;100.00
44213;BME280;29882;46.356;17.798;2022-09-01T05:33:50;99863.81;;;17.63;100.00
44213;BME280;29882;46.356;17.798;2022-09-01T05:36:21;99862.34;;;17.67;100.00
44213;BME280;29882;46.356;17.798;2022-09-01T05:38:50;99862.78;;;17.64;100.00
44213;BME280;29882;46.356;17.798;2022-09-01T05:41:19;99869.28;;;17.63;100.00
44213;BME280;29882;46.356;17.798;2022-09-01T05:43:48;99868.00;;;17.66;100.00
44213;BME280;29882;46.356;17.798;2022-09-01T05:46:25;99869.69;;;17.67;100.00
44213;BME280;29882;46.356;17.798;2022-09-01T05:48:56;99869.09;;;17.71;100.00
44213;BME280;29882;46.356;17.798;2022-09-01T05:51:25;99869.72;;;17.73;100.00
44213;BME280;29882;46.356;17.798;2022-09-01T05:54:11;99866.16;;;17.73;100.00
44213;BME280;29882;46.356;17.798;2022-09-01T05:56:39;99874.72;;;17.70;100.00
44213;BME280;29882;46.356;17.798;2022-09-01T05:59:13;99872.22;;;17.75;100.00
44213;BME280;29882;46.356;17.798;2022-09-01T06:01:52;99875.34;;;17.78;100.00
44213;BME280;29882;46.356;17.798;2022-09-01T06:04:21;99881.25;;;17.75;100.00
44213;BME280;29882;46.356;17.798;2022-09-01T06:06:50;99883.13;;;17.75;100.00
44213;BME280;29882;46.356;17.798;2022-09-01T06:09:45;99882.03;;;17.69;100.00
44213;BME280;29882;46.356;17.798;2022-09-01T06:12:16;99877.88;;;17.73;100.00
44213;BME280;29882;46.356;17.798;2022-09-01T06:14:46;99882.28;;;17.81;100.00
44213;BME280;29882;46.356;17.798;2022-09-01T06:17:19;99875.16;;;17.73;100.00
44213;BME280;29882;46.356;17.798;2022-09-01T06:19:50;99881.47;;;17.80;100.00
44213;BME280;29882;46.356;17.798;2022-09-01T06:22:19;99879.78;;;17.73;100.00
44213;BME280;29882;46.356;17.798;2022-09-01T06:24:47;99885.25;;;17.79;100.00
44213;BME280;29882;46.356;17.798;2022-09-01T06:27:21;99879.53;;;17.68;100.00
44213;BME280;29882;46.356;17.798;2022-09-01T06:29:48;99882.25;;;17.68;100.00
44213;BME280;29882;46.356;17.798;2022-09-01T06:32:19;99869.47;;;17.68;100.00
44213;BME280;29882;46.356;17.798;2022-09-01T06:34:46;99880.19;;;17.76;100.00
44213;BME280;29882;46.356;17.798;2022-09-01T06:37:17;99886.47;;;17.77;100.00
44213;BME280;29882;46.356;17.798;2022-09-01T06:39:52;99881.66;;;17.72;100.00
44213;BME280;29882;46.356;17.798;2022-09-01T06:42:20;99886.25;;;17.65;100.00
44213;BME280;29882;46.356;17.798;2022-09-01T06:44:54;99881.41;;;17.67;100.00
44213;BME280;29882;46.356;17.798;2022-09-01T06:47:22;99887.50;;;17.69;100.00
44213;BME280;29882;46.356;17.798;2022-09-01T06:49:49;99878.72;;;17.74;100.00
44213;BME280;29882;46.356;17.798;2022-09-01T06:52:24;99882.28;;;17.74;100.00
44213;BME280;29882;46.356;17.798;2022-09-01T06:54:52;99877.88;;;17.73;100.00
44213;BME280;29882;46.356;17.798;2022-09-01T06:57:20;99884.19;;;17.74;100.00
44213;BME280;29882;46.356;17.798;2022-09-01T07:00:11;99885.84;;;17.75;100.00
44213;BME280;29882;46.356;17.798;2022-09-01T07:02:47;99886.69;;;17.82;100.00
44213;BME280;29882;46.356;17.798;2022-09-01T07:05:42;99888.38;;;17.90;100.00
44213;BME280;29882;46.356;17.798;2022-09-01T07:08:46;99889.00;;;17.85;100.00
44213;BME280;29882;46.356;17.798;2022-09-01T07:11:37;99898.22;;;17.84;100.00
44213;BME280;29882;46.356;17.798;2022-09-01T07:14:25;99898.63;;;17.87;100.00
44213;BME280;29882;46.356;17.798;2022-09-01T07:16:52;99897.56;;;17.95;100.00
44213;BME280;29882;46.356;17.798;2022-09-01T07:19:39;99903.47;;;17.99;100.00
44213;BME280;29882;46.356;17.798;2022-09-01T07:22:14;99909.72;;;18.06;100.00
44213;BME280;29882;46.356;17.798;2022-09-01T07:25:02;99919.19;;;17.90;100.00
44213;BME280;29882;46.356;17.798;2022-09-01T07:27:57;99918.53;;;17.95;100.00
44213;BME280;29882;46.356;17.798;2022-09-01T07:30:26;99924.00;;;17.95;100.00
44213;BME280;29882;46.356;17.798;2022-09-01T07:32:54;99928.00;;;17.92;100.00
44213;BME280;29882;46.356;17.798;2022-09-01T07:35:23;99928.63;;;17.74;100.00
44213;BME280;29882;46.356;17.798;2022-09-01T07:37:51;99931.56;;;17.79;100.00
44213;BME280;29882;46.356;17.798;2022-09-01T07:40:41;99933.66;;;17.84;100.00
44213;BME280;29882;46.356;17.798;2022-09-01T07:43:47;99937.22;;;17.71;100.00
44213;BME280;29882;46.356;17.798;2022-09-01T07:46:35;99948.75;;;17.73;100.00
44213;BME280;29882;46.356;17.798;2022-09-01T07:49:07;99939.06;;;17.64;100.00
44213;BME280;29882;46.356;17.798;2022-09-01T07:51:54;99944.94;;;17.68;100.00
44213;BME280;29882;46.356;17.798;2022-09-01T07:54:25;99943.31;;;17.73;100.00
44213;BME280;29882;46.356;17.798;2022-09-01T07:56:54;99947.66;;;17.68;100.00
44213;BME280;29882;46.356;17.798;2022-09-01T07:59:23;99945.59;;;17.70;100.00
44213;BME280;29882;46.356;17.798;2022-09-01T08:02:11;99947.28;;;17.84;100.00
44213;BME280;29882;46.356;17.798;2022-09-01T08:04:41;99950.84;;;17.78;100.00
44213;BME280;29882;46.356;17.798;2022-09-01T08:07:09;99946.84;;;17.87;100.00
44213;BME280;29882;46.356;17.798;2022-09-01T08:09:42;99949.16;;;17.83;100.00
44213;BME280;29882;46.356;17.798;2022-09-01T08:12:12;99941.00;;;17.83;100.00
44213;BME280;29882;46.356;17.798;2022-09-01T08:14:45;99936.59;;;17.82;100.00
44213;BME280;29882;46.356;17.798;2022-09-01T08:17:13;99941.38;;;17.67;100.00
44213;BME280;29882;46.356;17.798;2022-09-01T08:20:03;99950.00;;;17.77;100.00
44213;BME280;29882;46.356;17.798;2022-09-01T08:22:58;99950.63;;;17.73;100.00
44213;BME280;29882;46.356;17.798;2022-09-01T08:25:31;99950.44;;;17.81;100.00
44213;BME280;29882;46.356;17.798;2022-09-01T08:28:00;99942.25;;;17.87;100.00
44213;BME280;29882;46.356;17.798;2022-09-01T08:30:29;99948.75;;;17.86;100.00
44213;BME280;29882;46.356;17.798;2022-09-01T08:33:02;99947.06;;;17.79;100.00
44213;BME280;29882;46.356;17.798;2022-09-01T08:35:41;99947.28;;;17.91;100.00
44213;BME280;29882;46.356;17.798;2022-09-01T08:38:09;99947.69;;;17.94;100.00
44213;BME280;29882;46.356;17.798;2022-09-01T08:40:37;99950.03;;;17.91;100.00
44213;BME280;29882;46.356;17.798;2022-09-01T08:43:40;99952.94;;;17.96;100.00
44213;BME280;29882;46.356;17.798;2022-09-01T08:46:26;99948.31;;;17.96;100.00
44213;BME280;29882;46.356;17.798;2022-09-01T08:49:03;99950.00;;;17.97;100.00
44213;BME280;29882;46.356;17.798;2022-09-01T08:54:51;99946.44;;;18.17;100.00
44213;BME280;29882;46.356;17.798;2022-09-01T08:57:23;99947.91;;;18.12;100.00
44213;BME280;29882;46.356;17.798;2022-09-01T09:00:13;99941.59;;;18.12;100.00
44213;BME280;29882;46.356;17.798;2022-09-01T09:02:54;99939.06;;;18.24;100.00
44213;BME280;29882;46.356;17.798;2022-09-01T09:08:32;99937.59;;;18.21;100.00
44213;BME280;29882;46.356;17.798;2022-09-01T09:11:12;99938.00;;;18.31;100.00
44213;BME280;29882;46.356;17.798;2022-09-01T09:16:43;99948.13;;;18.24;100.00
44213;BME280;29882;46.356;17.798;2022-09-01T09:19:23;99951.88;;;18.23;100.00
44213;BME280;29882;46.356;17.798;2022-09-01T09:21:53;99947.28;;;18.17;100.00
44213;BME280;29882;46.356;17.798;2022-09-01T09:24:36;99942.44;;;18.19;100.00
44213;BME280;29882;46.356;17.798;2022-09-01T09:29:51;99945.16;;;18.06;100.00
44213;BME280;29882;46.356;17.798;2022-09-01T09:32:21;99951.25;;;17.95;100.00
44213;BME280;29882;46.356;17.798;2022-09-01T09:35:36;99956.94;;;17.80;100.00
44213;BME280;29882;46.356;17.798;2022-09-01T09:46:23;99962.78;;;17.77;100.00
44213;BME280;29882;46.356;17.798;2022-09-01T09:49:23;99965.09;;;17.73;100.00
44213;BME280;29882;46.356;17.798;2022-09-01T09:54:31;99956.03;;;17.66;100.00
44213;BME280;29882;46.356;17.798;2022-09-01T09:57:11;99953.53;;;17.65;100.00
44213;BME280;29882;46.356;17.798;2022-09-01T10:02:29;99957.97;;;17.72;100.00
44213;BME280;29882;46.356;17.798;2022-09-01T10:05:22;99951.22;;;17.62;100.00
44213;BME280;29882;46.356;17.798;2022-09-01T10:07:46;99947.88;;;17.66;100.00
44213;BME280;29882;46.356;17.798;2022-09-01T10:10:38;99951.44;;;17.67;100.00
44213;BME280;29882;46.356;17.798;2022-09-01T10:13:12;99948.13;;;17.71;100.00
44213;BME280;29882;46.356;17.798;2022-09-01T10:15:43;99954.59;;;17.64;100.00
44213;BME280;29882;46.356;17.798;2022-09-01T10:18:19;99943.88;;;17.55;100.00
44213;BME280;29882;46.356;17.798;2022-09-01T10:21:01;99951.44;;;17.67;100.00
44213;BME280;29882;46.356;17.798;2022-09-01T10:23:32;99932.63;;;17.72;100.00
44213;BME280;29882;46.356;17.798;2022-09-01T10:26:08;99942.03;;;17.96;100.00
44213;BME280;29882;46.356;17.798;2022-09-01T10:28:55;99945.38;;;18.04;100.00
44213;BME280;29882;46.356;17.798;2022-09-01T10:31:23;99942.22;;;18.27;100.00
44213;BME280;29882;46.356;17.798;2022-09-01T10:34:00;99941.78;;;18.43;100.00
44213;BME280;29882;46.356;17.798;2022-09-01T10:36:31;99937.94;;;18.58;100.00
44213;BME280;29882;46.356;17.798;2022-09-01T10:39:01;99937.53;;;18.67;100.00
44213;BME280;29882;46.356;17.798;2022-09-01T10:41:54;99930.94;;;18.88;100.00
44213;BME280;29882;46.356;17.798;2022-09-01T10:44:35;99928.81;;;18.97;100.00
44213;BME280;29882;46.356;17.798;2022-09-01T10:47:31;99929.69;;;18.84;100.00
44213;BME280;29882;46.356;17.798;2022-09-01T10:50:23;99930.53;;;18.85;100.00
44213;BME280;29882;46.356;17.798;2022-09-01T10:52:56;99926.78;;;18.79;100.00
44213;BME280;29882;46.356;17.798;2022-09-01T11:04:18;99937.75;;;18.66;100.00
44213;BME280;29882;46.356;17.798;2022-09-01T11:07:05;99939.19;;;18.68;100.00
44213;BME280;29882;46.356;17.798;2022-09-01T11:10:32;99944.91;;;18.54;100.00
44213;BME280;29882;46.356;17.798;2022-09-01T11:15:38;99951.59;;;18.58;100.00
44213;BME280;29882;46.356;17.798;2022-09-01T11:18:09;99946.34;;;18.63;100.00
44213;BME280;29882;46.356;17.798;2022-09-01T11:20:43;99950.59;;;18.39;100.00
44213;BME280;29882;46.356;17.798;2022-09-01T11:23:24;99944.50;;;18.43;100.00
44213;BME280;29882;46.356;17.798;2022-09-01T11:25:56;99954.16;;;18.39;100.00
44213;BME280;29882;46.356;17.798;2022-09-01T11:28:43;99956.91;;;18.20;100.00
44213;BME280;29882;46.356;17.798;2022-09-01T11:31:17;99949.13;;;18.30;100.00
44213;BME280;29882;46.356;17.798;2022-09-01T11:33:55;99946.63;;;18.28;100.00
44213;BME280;29882;46.356;17.798;2022-09-01T11:36:33;99947.03;;;18.32;100.00
44213;BME280;29882;46.356;17.798;2022-09-01T11:39:51;99949.97;;;18.37;100.00
44213;BME280;29882;46.356;17.798;2022-09-01T11:42:06;99946.63;;;18.35;100.00
44213;BME280;29882;46.356;17.798;2022-09-01T11:47:19;99943.47;;;18.31;100.00
44213;BME280;29882;46.356;17.798;2022-09-01T11:49:56;99936.16;;;18.25;100.00
44213;BME280;29882;46.356;17.798;2022-09-01T11:52:28;99936.56;;;18.22;100.00
44213;BME280;29882;46.356;17.798;2022-09-01T11:54:57;99939.69;;;18.32;100.00
44213;BME280;29882;46.356;17.798;2022-09-01T11:59:55;99944.13;;;18.27;100.00
44213;BME280;29882;46.356;17.798;2022-09-01T12:02:26;99937.00;;;18.19;100.00
44213;BME280;29882;46.356;17.798;2022-09-01T12:04:56;99933.00;;;18.15;100.00
44213;BME280;29882;46.356;17.798;2022-09-01T12:07:44;99931.31;;;18.14;100.00
44213;BME280;29882;46.356;17.798;2022-09-01T12:10:34;99932.19;;;18.08;100.00
44213;BME280;29882;46.356;17.798;2022-09-01T12:13:07;99927.56;;;18.08;100.00
44213;BME280;29882;46.356;17.798;2022-09-01T12:15:37;99919.59;;;18.00;100.00
44213;BME280;29882;46.356;17.798;2022-09-01T12:18:30;99920.44;;;17.87;100.00
44213;BME280;29882;46.356;17.798;2022-09-01T12:20:59;99921.69;;;17.78;100.00
44213;BME280;29882;46.356;17.798;2022-09-01T12:23:41;99915.00;;;17.81;100.00
44213;BME280;29882;46.356;17.798;2022-09-01T12:26:22;99921.47;;;17.86;100.00
44213;BME280;29882;46.356;17.798;2022-09-01T12:28:51;99912.06;;;17.89;100.00
44213;BME280;29882;46.356;17.798;2022-09-01T12:31:21;99916.44;;;17.97;100.00
44213;BME280;29882;46.356;17.798;2022-09-01T12:33:51;99922.97;;;17.89;100.00
44213;BME280;29882;46.356;17.798;2022-09-01T12:38:55;99929.84;;;18.05;100.00
44213;BME280;29882;46.356;17.798;2022-09-01T12:44:25;99925.63;;;18.22;100.00
44213;BME280;29882;46.356;17.798;2022-09-01T12:46:52;99931.75;;;18.24;100.00
44213;BME280;29882;46.356;17.798;2022-09-01T12:49:25;99931.94;;;18.36;100.00
44213;BME280;29882;46.356;17.798;2022-09-01T13:07:58;99929.84;;;18.05;100.00
44213;BME280;29882;46.356;17.798;2022-09-01T13:10:31;99930.50;;;18.00;100.00
44213;BME280;29882;46.356;17.798;2022-09-01T13:12:58;99933.63;;;18.04;100.00
44213;BME280;29882;46.356;17.798;2022-09-01T13:15:27;99929.88;;;17.98;100.00
44213;BME280;29882;46.356;17.798;2022-09-01T13:17:54;99934.50;;;17.98;100.00
44213;BME280;29882;46.356;17.798;2022-09-01T13:20:22;99940.16;;;17.83;100.00
44213;BME280;29882;46.356;17.798;2022-09-01T13:22:49;99933.25;;;17.74;100.00
44213;BME280;29882;46.356;17.798;2022-09-01T13:25:19;99936.81;;;17.74;100.00
44213;BME280;29882;46.356;17.798;2022-09-01T13:27:47;99941.81;;;17.77;100.00
44213;BME280;29882;46.356;17.798;2022-09-01T13:30:16;99944.16;;;17.80;100.00
44213;BME280;29882;46.356;17.798;2022-09-01T13:32:45;99935.13;;;17.80;100.00
44213;BME280;29882;46.356;17.798;2022-09-01T13:35:33;99940.56;;;17.93;100.00
44213;BME280;29882;46.356;17.798;2022-09-01T13:38:00;99942.69;;;17.98;100.00
44213;BME280;29882;46.356;17.798;2022-09-01T13:40:27;99946.44;;;17.97;100.00
44213;BME280;29882;46.356;17.798;2022-09-01T13:42:54;99936.56;;;17.96;100.00
44213;BME280;29882;46.356;17.798;2022-09-01T13:45:23;99951.06;;;18.09;100.00
44213;BME280;29882;46.356;17.798;2022-09-01T13:47:53;99952.50;;;18.19;100.00
44213;BME280;29882;46.356;17.798;2022-09-01T13:50:41;99946.66;;;18.08;100.00
44213;BME280;29882;46.356;17.798;2022-09-01T13:53:29;99948.13;;;18.11;100.00
44213;BME280;29882;46.356;17.798;2022-09-01T13:55:56;99948.50;;;18.21;100.00
44213;BME280;29882;46.356;17.798;2022-09-01T13:58:43;99951.06;;;18.16;100.00
44213;BME280;29882;46.356;17.798;2022-09-01T14:01:13;99943.28;;;18.26;100.00
44213;BME280;29882;46.356;17.798;2022-09-01T14:03:42;99945.97;;;18.33;100.00
44213;BME280;29882;46.356;17.798;2022-09-01T14:06:12;99945.56;;;18.36;100.00
44213;BME280;29882;46.356;17.798;2022-09-01T14:08:39;99946.19;;;18.38;100.00
44213;BME280;29882;46.356;17.798;2022-09-01T14:11:06;99953.31;;;18.46;100.00
44213;BME280;29882;46.356;17.798;2022-09-01T14:13:34;99951.63;;;18.51;100.00
44213;BME280;29882;46.356;17.798;2022-09-01T14:16:09;99963.56;;;18.50;100.00
44213;BME280;29882;46.356;17.798;2022-09-01T14:18:36;99952.66;;;18.50;100.00
44213;BME280;29882;46.356;17.798;2022-09-01T14:21:05;99949.97;;;18.37;100.00
44213;BME280;29882;46.356;17.798;2022-09-01T14:23:41;99951.19;;;18.48;100.00